Time;durP1;ratioP1;P1;durP2;ratioP2;P2;SDS_P1;SDS_P2;PMS_P1;PMS_P2;Temp;Humidity;BMP_temperature;BMP_pressure;BME280_temperature;BME280_humidity;BME280_pressure;Samples;Min_cycle;Max_cycle;Signal;HPM_P1;HPM_P2
2023/05/07 00:00:59;;;;;;;30.98;18.60;;;;;;;19.26;68.33;101692.34;4964626;28;20119;-44
2023/05/07 00:03:26;;;;;;;31.92;18.17;;;;;;;19.15;68.57;101700.34;4964322;28;20417;-44
2023/05/07 00:05:52;;;;;;;27.83;17.27;;;;;;;19.39;67.91;101701.94;4961071;28;20054;-42
2023/05/07 00:08:18;;;;;;;29.98;17.83;;;;;;;19.32;68.00;101700.22;4964730;28;20486;-44
2023/05/07 00:10:44;;;;;;;28.08;17.58;;;;;;;19.35;67.89;101700.19;4960984;28;20054;-43
2023/05/07 00:13:09;;;;;;;28.05;17.05;;;;;;;19.39;67.62;101704.56;4963931;28;20038;-42
2023/05/07 00:15:35;;;;;;;27.52;17.10;;;;;;;19.26;67.92;101709.09;4960734;28;20145;-42
2023/05/07 00:18:00;;;;;;;27.17;16.67;;;;;;;19.34;67.75;101709.00;4964694;28;20048;-42
2023/05/07 00:20:25;;;;;;;28.15;17.60;;;;;;;19.29;67.59;101711.69;4964340;28;20553;-41
2023/05/07 00:22:51;;;;;;;27.25;17.17;;;;;;;19.31;67.40;101712.56;4962892;28;20050;-42
2023/05/07 00:25:16;;;;;;;27.15;17.15;;;;;;;19.10;68.25;101710.09;4968480;28;20513;-42
2023/05/07 00:27:41;;;;;;;27.98;16.80;;;;;;;19.19;67.72;101703.88;4965080;28;20034;-44
2023/05/07 00:30:08;;;;;;;27.23;17.02;;;;;;;19.33;67.48;101702.00;4968376;28;20489;-45
2023/05/07 00:32:33;;;;;;;27.40;16.25;;;;;;;19.35;67.24;101705.47;4964323;28;20560;-45
2023/05/07 00:34:58;;;;;;;26.65;16.40;;;;;;;19.16;67.75;101698.59;4966284;28;20031;-45
2023/05/07 00:37:23;;;;;;;27.35;16.92;;;;;;;19.18;67.74;101702.13;4965547;28;20027;-44
2023/05/07 00:39:49;;;;;;;27.15;16.05;;;;;;;19.26;67.46;101700.28;4960871;28;20035;-44
2023/05/07 00:42:16;;;;;;;27.15;17.02;;;;;;;19.20;67.14;101700.34;4963623;28;20054;-43
2023/05/07 00:44:41;;;;;;;25.13;16.48;;;;;;;19.18;67.03;101691.53;4960144;28;20034;-43
2023/05/07 00:47:07;;;;;;;26.77;16.67;;;;;;;19.13;67.26;101699.53;4963981;28;20074;-43
2023/05/07 00:49:44;;;;;;;27.42;17.33;;;;;;;19.15;67.17;101704.81;4959461;28;20054;-51
2023/05/07 00:52:12;;;;;;;25.85;16.58;;;;;;;19.14;67.51;101698.63;4963485;28;20097;-43
2023/05/07 00:54:40;;;;;;;28.65;17.35;;;;;;;19.16;67.50;101699.47;4963673;28;20121;-42
2023/05/07 00:57:06;;;;;;;26.80;16.67;;;;;;;19.16;67.56;101698.59;4967439;28;20031;-41
2023/05/07 00:59:32;;;;;;;29.08;16.63;;;;;;;19.15;67.74;101689.78;4964190;28;20062;-41
2023/05/07 01:01:58;;;;;;;26.73;16.35;;;;;;;19.14;67.73;101695.13;4966755;28;20046;-42
2023/05/07 01:04:23;;;;;;;26.27;15.75;;;;;;;19.16;67.71;101693.31;4967030;28;20405;-43
2023/05/07 01:06:50;;;;;;;27.02;16.35;;;;;;;19.04;67.97;101692.53;4963353;28;20030;-45
2023/05/07 01:09:16;;;;;;;28.35;17.13;;;;;;;19.15;67.78;101687.16;4963393;28;20401;-44
2023/05/07 01:11:42;;;;;;;26.42;16.88;;;;;;;19.20;67.76;101689.78;4959431;28;20035;-46
2023/05/07 01:14:09;;;;;;;27.48;16.42;;;;;;;19.24;67.72;101691.47;4964025;28;20039;-45
2023/05/07 01:16:34;;;;;;;26.30;16.42;;;;;;;19.20;67.80;101681.84;4959478;28;20061;-43
2023/05/07 01:19:00;;;;;;;29.08;17.33;;;;;;;19.24;67.38;101678.25;4963500;28;20051;-47
2023/05/07 01:21:26;;;;;;;28.10;17.02;;;;;;;19.04;67.62;101674.03;4963009;28;20287;-44
2023/05/07 01:23:54;;;;;;;28.05;16.90;;;;;;;19.10;67.38;101680.16;4959736;28;20085;-48
2023/05/07 01:26:20;;;;;;;27.10;16.10;;;;;;;19.12;67.02;101673.09;4962932;28;20251;-44
2023/05/07 01:28:45;;;;;;;26.27;17.05;;;;;;;19.08;67.01;101676.66;4959892;28;20058;-43
2023/05/07 01:31:13;;;;;;;25.63;15.45;;;;;;;19.08;66.78;101674.91;4962780;28;20502;-45
2023/05/07 01:33:41;;;;;;;26.48;15.65;;;;;;;19.06;66.86;101674.03;4959134;28;20030;-42
2023/05/07 01:36:08;;;;;;;28.80;16.65;;;;;;;19.00;66.97;101674.97;4963544;28;20035;-45
2023/05/07 01:38:36;;;;;;;27.00;16.20;;;;;;;18.94;67.08;101676.78;4959206;28;20503;-41
2023/05/07 01:41:02;;;;;;;24.92;15.38;;;;;;;18.88;66.88;101676.81;4966039;28;20398;-44
2023/05/07 01:43:28;;;;;;;27.33;16.42;;;;;;;18.74;67.28;101674.28;4967519;28;20038;-44
2023/05/07 01:45:55;;;;;;;27.92;16.45;;;;;;;18.73;67.24;101680.44;4964237;28;20031;-43
2023/05/07 01:48:20;;;;;;;26.42;16.55;;;;;;;18.70;67.32;101685.78;4965870;28;20118;-43
2023/05/07 01:50:47;;;;;;;26.40;16.58;;;;;;;18.68;67.46;101681.38;4963181;28;20134;-43
2023/05/07 01:53:12;;;;;;;28.13;17.08;;;;;;;18.72;67.87;101675.19;4967364;28;20046;-43
2023/05/07 01:55:37;;;;;;;29.77;16.48;;;;;;;18.72;68.22;101673.44;4963725;28;20042;-42
2023/05/07 01:58:03;;;;;;;28.00;16.90;;;;;;;18.64;68.85;101678.75;4966469;28;20035;-44
2023/05/07 02:00:29;;;;;;;25.98;16.08;;;;;;;18.85;68.33;101684.75;4966870;28;20140;-43
2023/05/07 02:02:54;;;;;;;26.15;16.45;;;;;;;18.93;68.22;101688.22;4962905;28;20110;-44
2023/05/07 02:05:20;;;;;;;27.83;16.00;;;;;;;19.01;67.88;101683.75;4966202;28;20061;-42
2023/05/07 02:07:45;;;;;;;25.05;16.00;;;;;;;19.04;68.08;101687.25;4962804;28;20031;-42
2023/05/07 02:10:10;;;;;;;24.75;15.02;;;;;;;18.95;68.32;101682.06;4966389;28;20538;-44
2023/05/07 02:12:35;;;;;;;23.67;15.43;;;;;;;19.04;67.95;101678.44;4962689;28;20134;-43
2023/05/07 02:15:01;;;;;;;24.73;15.35;;;;;;;19.16;67.66;101677.44;4966968;28;20037;-43
2023/05/07 02:17:26;;;;;;;24.88;15.30;;;;;;;18.97;67.80;101669.69;4966237;28;20035;-46
2023/05/07 02:19:52;;;;;;;25.70;15.68;;;;;;;19.13;67.42;101685.41;4965015;28;20058;-42
2023/05/07 02:22:17;;;;;;;22.75;14.50;;;;;;;19.16;67.07;101674.81;4970226;28;20062;-43
2023/05/07 02:24:43;;;;;;;21.88;15.07;;;;;;;18.87;68.06;101685.63;4966022;28;20031;-50
2023/05/07 02:27:08;;;;;;;24.52;15.40;;;;;;;18.98;67.71;101670.56;4967392;28;20030;-44
2023/05/07 02:29:33;;;;;;;20.38;13.88;;;;;;;19.13;67.17;101681.00;4965584;28;20125;-41
2023/05/07 02:31:59;;;;;;;22.58;15.10;;;;;;;19.12;66.89;101679.25;4969897;28;20093;-43
2023/05/07 02:34:24;;;;;;;20.38;14.32;;;;;;;19.21;66.64;101676.50;4969245;28;20363;-43
2023/05/07 02:36:49;;;;;;;20.15;14.15;;;;;;;19.21;67.01;101683.59;4965604;28;20039;-44
2023/05/07 02:39:16;;;;;;;20.40;13.40;;;;;;;19.26;66.68;101681.78;4969239;28;20034;-42
2023/05/07 02:41:42;;;;;;;21.13;13.82;;;;;;;19.22;66.74;101690.63;4966542;28;20446;-45
2023/05/07 02:44:07;;;;;;;20.95;14.45;;;;;;;19.22;66.72;101688.84;4968325;28;20145;-43
2023/05/07 02:46:33;;;;;;;20.00;13.48;;;;;;;19.22;66.89;101687.97;4962438;28;20086;-42
2023/05/07 02:48:58;;;;;;;21.85;13.93;;;;;;;19.18;67.04;101689.78;4967443;28;20062;-41
2023/05/07 02:51:23;;;;;;;21.80;14.43;;;;;;;19.11;67.28;101682.78;4965616;28;20178;-45
2023/05/07 02:53:49;;;;;;;23.13;14.25;;;;;;;19.01;67.49;101682.00;4963200;28;20115;-42
2023/05/07 02:56:14;;;;;;;21.38;14.30;;;;;;;18.98;67.88;101683.78;4965134;28;20113;-44
2023/05/07 02:58:40;;;;;;;19.50;13.82;;;;;;;19.11;67.26;101677.50;4961334;28;20087;-43
2023/05/07 03:01:06;;;;;;;21.33;14.07;;;;;;;19.02;67.45;101678.47;4965470;28;20085;-43
2023/05/07 03:03:31;;;;;;;21.20;14.38;;;;;;;19.22;66.92;101677.41;4961352;28;20546;-42
2023/05/07 03:05:57;;;;;;;20.00;13.88;;;;;;;19.12;67.16;101678.38;4965453;28;20031;-43
2023/05/07 03:08:22;;;;;;;19.08;13.70;;;;;;;19.19;67.08;101686.25;4965392;28;20050;-45
2023/05/07 03:10:48;;;;;;;21.08;14.13;;;;;;;19.26;66.55;101680.00;4961810;28;20074;-43
2023/05/07 03:13:13;;;;;;;18.67;13.57;;;;;;;19.04;67.31;101687.25;4966653;28;20038;-43
2023/05/07 03:15:39;;;;;;;18.58;13.40;;;;;;;19.17;67.34;101687.13;4963951;28;20508;-45
2023/05/07 03:18:04;;;;;;;16.48;13.05;;;;;;;19.27;66.72;101680.91;4967989;28;20063;-42
2023/05/07 03:20:30;;;;;;;19.65;13.77;;;;;;;19.30;66.54;101679.09;4967665;28;20086;-43
2023/05/07 03:22:55;;;;;;;18.00;13.57;;;;;;;19.36;66.47;101686.09;4964034;28;20121;-43
2023/05/07 03:25:21;;;;;;;18.45;13.40;;;;;;;19.32;66.63;101679.97;4968050;28;20199;-44
2023/05/07 03:27:46;;;;;;;20.45;13.57;;;;;;;19.31;66.82;101686.13;4966059;28;20473;-43
2023/05/07 03:30:12;;;;;;;20.13;12.85;;;;;;;19.26;66.77;101690.59;4968430;28;20042;-42
2023/05/07 03:32:37;;;;;;;19.50;12.75;;;;;;;19.19;67.26;101682.72;4966330;28;20133;-42
2023/05/07 03:35:03;;;;;;;18.00;13.50;;;;;;;19.24;67.20;101683.56;4968386;28;20450;-41
2023/05/07 03:37:28;;;;;;;17.52;12.80;;;;;;;19.25;67.12;101678.25;4968625;28;20552;-45
2023/05/07 03:39:54;;;;;;;20.10;13.15;;;;;;;19.29;66.93;101676.44;4965617;28;20091;-44
2023/05/07 03:42:19;;;;;;;16.15;12.68;;;;;;;19.13;67.36;101670.44;4968758;28;20115;-43
2023/05/07 03:44:45;;;;;;;16.17;12.85;;;;;;;18.83;68.23;101670.72;4963502;28;20037;-44
2023/05/07 03:47:10;;;;;;;16.75;12.60;;;;;;;19.01;67.67;101668.78;4966699;28;20485;-43
2023/05/07 03:49:35;;;;;;;16.60;12.52;;;;;;;19.18;67.10;101675.69;4963238;28;20477;-43
2023/05/07 03:52:01;;;;;;;17.20;12.32;;;;;;;19.13;67.18;101667.81;4966780;28;20035;-45
2023/05/07 03:54:26;;;;;;;16.77;12.35;;;;;;;19.08;67.35;101674.03;4965889;28;20039;-43
2023/05/07 03:56:51;;;;;;;16.60;12.10;;;;;;;19.14;67.11;101671.31;4961954;28;20038;-43
2023/05/07 03:59:17;;;;;;;15.45;12.05;;;;;;;19.19;66.94;101675.69;4965762;28;20031;-42
2023/05/07 04:01:42;;;;;;;14.32;11.50;;;;;;;19.24;66.67;101683.56;4962861;28;20045;-46
2023/05/07 04:04:07;;;;;;;13.48;11.38;;;;;;;19.23;66.58;101685.31;4966571;28;20061;-47
2023/05/07 04:06:33;;;;;;;15.85;11.38;;;;;;;19.28;66.75;101686.16;4963558;28;20038;-43
2023/05/07 04:08:58;;;;;;;15.18;11.50;;;;;;;19.25;67.17;101687.97;4966980;28;20035;-43
2023/05/07 04:11:23;;;;;;;15.20;11.32;;;;;;;19.17;67.14;101690.66;4966512;28;20097;-42
2023/05/07 04:13:49;;;;;;;16.05;11.60;;;;;;;19.15;67.14;101696.88;4962766;28;20065;-42
2023/05/07 04:16:14;;;;;;;14.43;11.40;;;;;;;19.18;67.18;101691.53;4966153;28;20413;-42
2023/05/07 04:18:40;;;;;;;14.60;10.52;;;;;;;19.21;67.06;101689.72;4961305;28;20031;-44
2023/05/07 04:21:05;;;;;;;13.35;10.95;;;;;;;19.03;67.66;101690.78;4965338;28;20041;-46
2023/05/07 04:23:31;;;;;;;13.40;10.75;;;;;;;19.26;66.77;101690.59;4963572;28;20035;-44
2023/05/07 04:25:57;;;;;;;13.65;10.40;;;;;;;19.18;67.06;101689.78;4960773;28;20027;-43
2023/05/07 04:28:22;;;;;;;17.48;11.15;;;;;;;19.32;66.79;101692.31;4964317;28;20126;-43
2023/05/07 04:30:48;;;;;;;13.95;10.43;;;;;;;19.22;66.86;101698.53;4960133;28;20045;-45
2023/05/07 04:33:16;;;;;;;13.63;10.88;;;;;;;19.36;66.45;101692.25;4963961;28;20501;-45
2023/05/07 04:35:41;;;;;;;12.02;10.05;;;;;;;19.34;66.56;101696.66;4960073;28;20050;-43
2023/05/07 04:38:07;;;;;;;14.32;10.68;;;;;;;19.34;66.56;101698.44;4963199;28;20034;-43
2023/05/07 04:40:32;;;;;;;13.35;10.35;;;;;;;19.19;66.90;101701.22;4960914;28;20603;-44
2023/05/07 04:42:57;;;;;;;13.98;10.70;;;;;;;19.17;67.30;101692.44;4963439;28;20042;-43
2023/05/07 04:45:23;;;;;;;14.98;10.60;;;;;;;19.22;66.77;101703.81;4963592;28;20641;-43
2023/05/07 04:47:48;;;;;;;13.65;10.65;;;;;;;19.29;66.65;101700.25;4959681;28;20049;-46
2023/05/07 04:50:13;;;;;;;12.45;10.10;;;;;;;19.27;66.55;101702.06;4963472;28;20513;-44
2023/05/07 04:52:38;;;;;;;12.48;9.95;;;;;;;19.32;66.48;101690.53;4960192;28;20066;-44
2023/05/07 04:55:04;;;;;;;13.32;10.40;;;;;;;19.30;66.50;101704.66;4963247;28;20122;-45
2023/05/07 04:57:29;;;;;;;13.70;9.93;;;;;;;19.33;66.66;101702.00;4965196;28;20524;-43
2023/05/07 04:59:55;;;;;;;11.93;10.10;;;;;;;19.33;66.69;101702.84;4963366;28;20042;-42
2023/05/07 05:02:20;;;;;;;14.13;10.40;;;;;;;19.31;66.83;101703.75;4966670;28;20038;-47
2023/05/07 05:04:45;;;;;;;13.35;10.38;;;;;;;19.33;66.88;101707.28;4963407;28;20053;-43
2023/05/07 05:07:11;;;;;;;13.25;9.80;;;;;;;19.48;66.59;101707.16;4965869;28;20031;-46
2023/05/07 05:09:36;;;;;;;13.45;10.77;;;;;;;19.48;66.71;101716.84;4963238;28;20030;-43
2023/05/07 05:12:01;;;;;;;13.43;10.00;;;;;;;19.50;66.77;101715.94;4966264;28;20066;-43
2023/05/07 05:14:27;;;;;;;15.52;10.65;;;;;;;19.42;67.10;101713.34;4964527;28;20078;-45
2023/05/07 05:16:52;;;;;;;13.10;10.38;;;;;;;19.45;67.33;101715.09;4961129;28;20117;-43
2023/05/07 05:19:17;;;;;;;12.90;10.00;;;;;;;19.48;67.53;101714.19;4965219;28;20027;-42
2023/05/07 05:21:43;;;;;;;13.23;10.43;;;;;;;19.56;67.30;101712.38;4960226;28;20066;-41
2023/05/07 05:24:08;;;;;;;13.57;10.27;;;;;;;19.67;67.01;101718.41;4964672;28;20058;-44
2023/05/07 05:26:34;;;;;;;12.77;10.00;;;;;;;19.69;66.87;101724.56;4959478;28;20508;-44
2023/05/07 05:28:59;;;;;;;11.73;10.00;;;;;;;19.71;66.86;101718.34;4963263;28;20045;-44
2023/05/07 05:31:24;;;;;;;12.95;10.07;;;;;;;19.78;66.46;101717.41;4962914;28;20553;-45
2023/05/07 05:33:50;;;;;;;13.27;10.38;;;;;;;19.77;66.29;101731.53;4959346;28;20478;-44
2023/05/07 05:36:16;;;;;;;13.05;10.40;;;;;;;19.78;66.41;101722.69;4963145;28;20441;-43
2023/05/07 05:38:41;;;;;;;12.50;9.82;;;;;;;19.81;66.53;101724.44;4959102;28;20077;-44
2023/05/07 05:41:06;;;;;;;12.48;10.00;;;;;;;19.92;66.32;101725.19;4962861;28;20066;-43
2023/05/07 05:43:31;;;;;;;12.77;9.82;;;;;;;20.02;65.65;101725.94;4959401;28;20121;-47
2023/05/07 05:45:57;;;;;;;13.75;10.48;;;;;;;20.04;65.67;101737.41;4962679;28;20035;-47
2023/05/07 05:48:23;;;;;;;11.80;9.77;;;;;;;20.03;65.35;101736.53;4962954;28;20047;-43
2023/05/07 05:50:49;;;;;;;13.00;10.80;;;;;;;20.09;64.69;101736.44;4962730;28;20117;-43
2023/05/07 05:53:15;;;;;;;12.60;10.48;;;;;;;19.91;65.30;101730.50;4965991;28;20549;-42
2023/05/07 05:55:41;;;;;;;14.55;10.85;;;;;;;20.09;64.35;101736.44;4963800;28;20038;-44
2023/05/07 05:58:07;;;;;;;13.18;10.93;;;;;;;20.14;64.10;101729.31;4968136;28;20046;-48
2023/05/07 06:00:32;;;;;;;13.80;10.80;;;;;;;20.07;64.25;101730.28;4964095;28;20031;-44
2023/05/07 06:02:57;;;;;;;12.52;10.63;;;;;;;20.30;63.53;101735.31;4966447;28;20481;-42
2023/05/07 06:05:22;;;;;;;15.80;11.25;;;;;;;20.50;63.57;101738.59;4962656;28;20041;-43
2023/05/07 06:07:48;;;;;;;13.80;11.77;;;;;;;20.34;63.44;101737.06;4959712;28;20039;-44
2023/05/07 06:10:13;;;;;;;14.95;11.73;;;;;;;20.67;63.20;101738.38;4963440;28;20409;-46
2023/05/07 06:12:39;;;;;;;13.55;11.23;;;;;;;20.97;62.68;101737.91;4959367;28;20070;-46
2023/05/07 06:15:05;;;;;;;14.40;11.30;;;;;;;21.13;61.60;101735.88;4964336;28;20498;-43
2023/05/07 06:17:30;;;;;;;16.50;12.05;;;;;;;21.47;60.36;101733.53;4963509;28;20041;-42
2023/05/07 06:19:56;;;;;;;15.75;12.30;;;;;;;21.57;59.71;101743.09;4959391;28;20035;-44
2023/05/07 06:22:21;;;;;;;14.80;12.02;;;;;;;21.74;59.47;101734.81;4963274;28;20031;-43
2023/05/07 06:24:47;;;;;;;16.27;12.27;;;;;;;22.09;58.95;101731.50;4959893;28;20085;-43
2023/05/07 06:27:12;;;;;;;15.27;12.32;;;;;;;22.38;57.50;101733.56;4965396;28;20031;-47
2023/05/07 06:29:37;;;;;;;16.67;12.68;;;;;;;22.44;57.49;101736.97;4962398;28;20497;-42
2023/05/07 06:32:10;;;;;;;18.35;13.07;;;;;;;22.96;56.22;101743.75;4968521;28;20031;-43
2023/05/07 06:34:35;;;;;;;17.10;13.50;;;;;;;23.42;54.58;101739.03;4965055;28;20045;-43
2023/05/07 06:37:01;;;;;;;16.90;13.32;;;;;;;23.74;53.04;101745.31;4969434;28;20094;-44
2023/05/07 06:39:26;;;;;;;15.93;13.10;;;;;;;23.88;52.48;101747.59;4967723;28;20037;-44
2023/05/07 06:41:52;;;;;;;16.10;13.45;;;;;;;22.99;53.81;101741.88;4966166;28;20073;-42
2023/05/07 06:44:17;;;;;;;18.70;14.68;;;;;;;22.91;54.04;101751.84;4967778;28;20422;-42
2023/05/07 06:46:42;;;;;;;17.05;14.55;;;;;;;22.61;54.88;101739.22;4965143;28;20050;-43
2023/05/07 06:49:08;;;;;;;17.50;13.82;;;;;;;22.76;55.85;101741.56;4968359;28;20075;-44
2023/05/07 06:51:33;;;;;;;18.95;14.85;;;;;;;22.55;56.05;101742.03;4962851;28;20127;-49
2023/05/07 06:53:58;;;;;;;18.67;14.60;;;;;;;22.38;57.01;101744.19;4966405;28;20187;-45
2023/05/07 06:56:24;;;;;;;17.75;15.25;;;;;;;22.29;57.43;101747.91;4965986;28;20497;-45
2023/05/07 06:58:50;;;;;;;20.02;15.50;;;;;;;22.16;57.92;101743.75;4962522;28;20130;-45
2023/05/07 07:01:15;;;;;;;20.15;14.07;;;;;;;22.38;57.36;101753.03;4965645;28;20057;-43
2023/05/07 07:03:40;;;;;;;20.23;15.63;;;;;;;22.32;57.31;101757.59;4962519;28;20043;-42
2023/05/07 07:06:06;;;;;;;17.23;14.38;;;;;;;22.47;55.89;101736.88;4970731;28;20035;-42
2023/05/07 07:08:31;;;;;;;17.75;14.95;;;;;;;22.20;57.80;101742.78;4970467;28;20293;-59
2023/05/07 07:10:57;;;;;;;17.98;14.18;;;;;;;22.08;58.25;101751.84;4970283;28;20035;-42
2023/05/07 07:13:22;;;;;;;18.13;14.52;;;;;;;22.21;57.99;101749.84;4971147;28;21544;-45
2023/05/07 07:15:48;;;;;;;18.13;14.55;;;;;;;22.40;57.85;101748.53;4968739;28;20059;-42
2023/05/07 07:18:13;;;;;;;19.52;14.98;;;;;;;22.60;57.81;101742.78;4972113;28;20055;-45
2023/05/07 07:20:38;;;;;;;16.48;14.02;;;;;;;22.98;56.76;101748.13;4967966;28;20152;-44
2023/05/07 07:23:04;;;;;;;17.25;13.75;;;;;;;23.44;55.21;101758.50;4971141;28;20027;-50
2023/05/07 07:25:29;;;;;;;16.90;13.43;;;;;;;23.79;53.85;101751.38;4971186;28;20482;-44
2023/05/07 07:27:54;;;;;;;18.10;14.32;;;;;;;23.98;52.84;101746.41;4966777;28;20041;-42
2023/05/07 07:30:20;;;;;;;19.02;13.65;;;;;;;24.23;52.11;101747.50;4970525;28;20033;-43
2023/05/07 07:32:45;;;;;;;21.40;13.18;;;;;;;24.27;52.47;101741.19;4967706;28;20071;-48
2023/05/07 07:35:10;;;;;;;18.13;13.10;;;;;;;24.55;51.95;101742.09;4966507;28;20043;-42
2023/05/07 07:37:36;;;;;;;16.85;13.48;;;;;;;24.65;49.92;101743.53;4965537;28;20057;-48
2023/05/07 07:40:01;;;;;;;19.17;14.40;;;;;;;24.09;52.08;101742.53;4971823;28;20035;-43
2023/05/07 07:42:27;;;;;;;17.65;13.50;;;;;;;23.92;52.12;101751.91;4971483;28;20031;-44
2023/05/07 07:44:52;;;;;;;16.48;13.25;;;;;;;23.62;53.20;101754.50;4964772;28;20034;-48
2023/05/07 07:47:17;;;;;;;19.70;13.63;;;;;;;23.64;53.63;101758.00;4969603;28;20118;-43
2023/05/07 07:49:43;;;;;;;19.70;14.70;;;;;;;23.51;54.30;101759.25;4967861;28;20039;-42
2023/05/07 07:52:08;;;;;;;19.58;14.60;;;;;;;23.23;54.88;101753.72;4965632;28;20406;-45
2023/05/07 07:54:33;;;;;;;19.50;13.38;;;;;;;22.99;55.54;101755.19;4961643;28;20191;-46
2023/05/07 07:56:58;;;;;;;18.42;12.80;;;;;;;23.08;56.26;101747.91;4965524;28;20462;-43
2023/05/07 07:59:24;;;;;;;16.55;12.15;;;;;;;23.45;55.13;101749.59;4964927;28;20035;-45
2023/05/07 08:01:50;;;;;;;14.65;11.30;;;;;;;23.89;54.08;101747.56;4961444;28;20506;-42
2023/05/07 08:04:15;;;;;;;16.83;11.52;;;;;;;23.90;53.46;101749.31;4964184;28;20496;-42
2023/05/07 08:06:41;;;;;;;19.55;12.10;;;;;;;23.96;54.37;101758.94;4961671;28;20043;-46
2023/05/07 08:09:06;;;;;;;15.93;12.10;;;;;;;24.16;53.13;101748.56;4964406;28;20031;-45
2023/05/07 08:11:31;;;;;;;16.65;11.23;;;;;;;24.32;53.31;101749.91;4962216;28;20117;-58
2023/05/07 08:13:57;;;;;;;13.73;10.00;;;;;;;24.55;53.59;101757.19;4965199;28;20084;-42
2023/05/07 08:16:22;;;;;;;15.85;10.75;;;;;;;24.31;54.20;101763.25;4965860;28;20053;-44
2023/05/07 08:18:47;;;;;;;15.07;9.80;;;;;;;24.32;53.97;101763.22;4962600;28;20175;-44
2023/05/07 08:21:13;;;;;;;13.77;10.45;;;;;;;24.13;55.00;101764.66;4965910;28;20038;-43
2023/05/07 08:23:38;;;;;;;14.20;9.68;;;;;;;24.67;52.19;101770.16;4961689;28;20029;-44
2023/05/07 08:26:03;;;;;;;17.00;10.10;;;;;;;24.37;53.51;101766.63;4966880;28;20037;-46
2023/05/07 08:28:29;;;;;;;11.93;8.57;;;;;;;24.90;50.99;101773.00;4968353;28;20026;-44
2023/05/07 08:30:56;;;;;;;15.63;9.20;;;;;;;24.82;52.44;101772.38;4965071;28;20057;-45
2023/05/07 08:33:21;;;;;;;14.80;9.55;;;;;;;24.64;52.68;101780.94;4965802;28;20406;-44
2023/05/07 08:35:47;;;;;;;12.30;9.13;;;;;;;25.31;50.95;101781.47;4961016;28;20039;-44
2023/05/07 08:38:12;;;;;;;12.10;8.20;;;;;;;25.67;49.46;101779.38;4964038;28;20046;-44
2023/05/07 08:40:40;;;;;;;12.27;8.95;;;;;;;25.36;47.67;101777.72;4960849;28;20073;-48
2023/05/07 08:43:06;;;;;;;11.57;8.20;;;;;;;25.17;49.61;101778.38;4964375;28;20042;-45
2023/05/07 08:45:33;;;;;;;13.90;9.15;;;;;;;25.66;48.35;101778.50;4961787;28;20386;-50
2023/05/07 08:48:03;;;;;;;13.10;9.13;;;;;;;25.57;49.69;101781.47;4963864;28;20121;-45
2023/05/07 08:50:28;;;;;;;14.50;9.45;;;;;;;25.59;48.56;101779.66;4964868;28;20035;-43
2023/05/07 08:52:54;;;;;;;14.63;9.85;;;;;;;25.65;49.06;101778.56;4961273;28;20035;-42
2023/05/07 08:55:20;;;;;;;14.10;9.02;;;;;;;25.97;48.57;101785.44;4964192;28;20429;-44
2023/05/07 08:57:45;;;;;;;12.38;9.23;;;;;;;25.86;48.54;101783.13;4960361;28;20038;-43
2023/05/07 09:00:11;;;;;;;13.82;9.82;;;;;;;26.02;48.53;101779.00;4963619;28;20114;-44
2023/05/07 09:02:37;;;;;;;13.40;9.30;;;;;;;26.28;49.14;101786.09;4960368;28;20030;-42
2023/05/07 09:05:03;;;;;;;14.05;9.30;;;;;;;26.49;46.78;101785.25;4963812;28;20038;-44
2023/05/07 09:07:30;;;;;;;11.20;7.47;;;;;;;26.81;46.22;101778.66;4963796;28;20051;-43
2023/05/07 09:09:56;;;;;;;12.32;8.38;;;;;;;26.46;47.22;101788.06;4958975;28;20041;-46
2023/05/07 09:12:22;;;;;;;10.68;7.57;;;;;;;26.83;46.78;101786.63;4963712;28;20083;-42
2023/05/07 09:14:47;;;;;;;12.07;8.57;;;;;;;26.87;45.62;101786.44;4960371;28;20030;-43
2023/05/07 09:17:13;;;;;;;12.55;8.63;;;;;;;26.78;45.81;101791.28;4963889;28;20027;-44
2023/05/07 09:19:39;;;;;;;12.75;8.38;;;;;;;26.69;46.30;101788.97;4960299;28;20030;-46
2023/05/07 09:22:07;;;;;;;11.45;9.05;;;;;;;27.01;45.97;101789.47;4963573;28;20448;-44
2023/05/07 09:24:37;;;;;;;14.60;10.68;;;;;;;26.19;48.87;101791.72;4960509;28;20034;-47
2023/05/07 09:27:03;;;;;;;13.90;10.30;;;;;;;26.60;47.49;101795.53;4963219;28;20126;-46
2023/05/07 09:29:30;;;;;;;15.73;11.70;;;;;;;26.78;46.01;101793.94;4963218;28;20062;-44
2023/05/07 09:31:56;;;;;;;17.60;11.55;;;;;;;26.88;45.69;101784.66;4960011;28;20038;-43
2023/05/07 09:34:22;;;;;;;15.88;11.15;;;;;;;26.98;46.21;101794.06;4963164;28;20089;-46
2023/05/07 09:36:47;;;;;;;16.02;11.15;;;;;;;27.16;44.05;101800.47;4959721;28;20046;-44
2023/05/07 09:39:13;;;;;;;14.70;10.55;;;;;;;26.87;44.97;101794.47;4962857;28;20454;-42
2023/05/07 09:41:46;;;;;;;12.75;8.73;;;;;;;26.01;47.25;101795.94;4960076;28;20062;-43
2023/05/07 09:44:13;;;;;;;12.52;9.07;;;;;;;25.81;47.76;101793.97;4963472;28;20394;-45
2023/05/07 09:46:41;;;;;;;11.05;8.40;;;;;;;26.59;45.10;101793.81;4961030;28;20375;-44
2023/05/07 09:49:13;;;;;;;11.85;8.93;;;;;;;26.70;45.15;101790.72;4967160;28;20395;-44
2023/05/07 09:51:49;;;;;;;12.25;9.00;;;;;;;26.61;45.50;101791.94;4962883;28;20062;-42
2023/05/07 09:54:16;;;;;;;13.75;9.75;;;;;;;26.64;44.96;101798.06;4964348;28;20026;-43
2023/05/07 09:56:44;;;;;;;14.32;10.10;;;;;;;26.47;45.31;101802.31;4959954;28;20037;-44
2023/05/07 09:59:13;;;;;;;15.63;11.00;;;;;;;25.97;47.21;101804.13;4963161;28;20046;-41
2023/05/07 10:01:40;;;;;;;15.57;10.60;;;;;;;25.88;46.77;101807.13;4962769;28;20615;-44
2023/05/07 10:04:08;;;;;;;16.65;10.93;;;;;;;25.80;47.74;101807.38;4967898;28;20082;-43
2023/05/07 10:06:34;;;;;;;15.35;10.38;;;;;;;25.80;47.53;101810.94;4963876;28;20058;-56
2023/05/07 10:09:00;;;;;;;21.52;11.00;;;;;;;25.85;46.65;101810.78;4966809;28;20062;-44
2023/05/07 10:11:26;;;;;;;14.45;10.48;;;;;;;25.97;47.05;101815.69;4968752;28;20406;-45
2023/05/07 10:13:52;;;;;;;13.02;10.00;;;;;;;26.15;46.88;101814.16;4965724;28;24297;-43
2023/05/07 10:16:18;;;;;;;19.10;10.32;;;;;;;26.27;45.45;101808.41;4968144;28;20031;-43
2023/05/07 10:18:45;;;;;;;12.57;9.50;;;;;;;26.04;47.03;101808.34;4963208;28;20047;-46
2023/05/07 10:21:16;;;;;;;14.07;8.85;;;;;;;26.33;45.49;101810.84;4966919;28;20035;-44
2023/05/07 10:23:45;;;;;;;14.27;10.07;;;;;;;26.61;44.32;101800.84;4963865;28;20493;-44
2023/05/07 10:26:12;;;;;;;15.25;9.30;;;;;;;27.04;44.14;101804.53;4967056;28;20457;-45
2023/05/07 10:28:41;;;;;;;12.82;9.15;;;;;;;26.91;42.84;101798.78;4963199;28;20042;-44
2023/05/07 10:31:27;;;;;;;13.70;9.23;;;;;;;26.99;42.35;101795.81;4966486;28;20469;-44
2023/05/07 10:33:56;;;;;;;13.13;8.98;;;;;;;27.30;41.74;101808.81;4964159;28;20413;-43
2023/05/07 10:36:22;;;;;;;13.75;9.10;;;;;;;27.11;44.15;101800.69;4966233;28;20031;-43
2023/05/07 10:38:48;;;;;;;12.85;9.02;;;;;;;26.89;42.25;101798.00;4963059;28;20417;-42
2023/05/07 10:41:15;;;;;;;13.57;8.52;;;;;;;27.03;42.68;101798.31;4966112;28;20038;-43
2023/05/07 10:43:41;;;;;;;12.48;8.35;;;;;;;27.49;42.86;101811.59;4962295;28;20299;-42
2023/05/07 10:46:13;;;;;;;12.00;8.02;;;;;;;27.31;41.02;101811.44;4966464;28;20101;-45
2023/05/07 10:49:00;;;;;;;11.77;7.75;;;;;;;27.30;42.61;101819.53;4964518;28;20303;-43
2023/05/07 10:51:27;;;;;;;12.43;8.25;;;;;;;26.90;42.25;101821.13;4967650;28;20034;-43
2023/05/07 10:54:10;;;;;;;12.68;9.13;;;;;;;26.43;43.74;101827.41;4964432;28;20130;-44
2023/05/07 10:56:47;;;;;;;11.77;8.32;;;;;;;26.94;44.14;101821.91;4965758;28;20121;-45
2023/05/07 10:59:27;;;;;;;11.65;6.72;;;;;;;27.19;42.54;101822.66;4968127;28;20528;-44
2023/05/07 11:02:02;;;;;;;12.25;7.00;;;;;;;27.51;40.61;101826.69;4964067;28;20043;-44
2023/05/07 11:04:27;;;;;;;13.15;7.35;;;;;;;27.42;41.22;101817.22;4968577;28;20027;-47
2023/05/07 11:07:08;;;;;;;10.68;7.22;;;;;;;27.19;42.58;101816.44;4964481;28;20069;-45